sensor_id;sensor_type;location;lat;lon;timestamp;pressure;altitude;pressure_sealevel;temperature;humidity
24280;BME280;12395;42.808;23.408;2023-06-19T00:01:46;94993.69;;;16.01;100.00
24280;BME280;12395;42.808;23.408;2023-06-19T00:04:12;95010.09;;;16.21;100.00
24280;BME280;12395;42.808;23.408;2023-06-19T00:06:37;95005.47;;;16.17;100.00
24280;BME280;12395;42.808;23.408;2023-06-19T00:09:03;94989.50;;;16.05;100.00
24280;BME280;12395;42.808;23.408;2023-06-19T00:11:28;94996.88;;;16.15;100.00
24280;BME280;12395;42.808;23.408;2023-06-19T00:13:54;95002.22;;;16.15;100.00
24280;BME280;12395;42.808;23.408;2023-06-19T00:16:20;94993.13;;;15.99;100.00
24280;BME280;12395;42.808;23.408;2023-06-19T00:18:46;94997.88;;;15.97;100.00
24280;BME280;12395;42.808;23.408;2023-06-19T00:21:11;94988.84;;;15.87;100.00
24280;BME280;12395;42.808;23.408;2023-06-19T00:23:37;94996.28;;;15.85;100.00
24280;BME280;12395;42.808;23.408;2023-06-19T00:26:02;94987.19;;;15.69;100.00
24280;BME280;12395;42.808;23.408;2023-06-19T00:28:28;94988.91;;;15.64;100.00
24280;BME280;12395;42.808;23.408;2023-06-19T00:30:54;94987.31;;;15.51;100.00
24280;BME280;12395;42.808;23.408;2023-06-19T00:33:19;94985.69;;;15.38;100.00
24280;BME280;12395;42.808;23.408;2023-06-19T00:35:45;94974.00;;;15.28;100.00
24280;BME280;12395;42.808;23.408;2023-06-19T00:38:10;94938.63;;;14.98;100.00
24280;BME280;12395;42.808;23.408;2023-06-19T00:40:37;94975.38;;;15.19;100.00
24280;BME280;12395;42.808;23.408;2023-06-19T00:43:02;94956.47;;;14.97;100.00
24280;BME280;12395;42.808;23.408;2023-06-19T00:45:28;94957.78;;;14.95;100.00
24280;BME280;12395;42.808;23.408;2023-06-19T00:47:54;94972.38;;;15.04;100.00
24280;BME280;12395;42.808;23.408;2023-06-19T00:50:21;94957.19;;;14.93;100.00
24280;BME280;12395;42.808;23.408;2023-06-19T00:52:46;94967.50;;;14.89;100.00
24280;BME280;12395;42.808;23.408;2023-06-19T00:55:12;94964.38;;;14.81;100.00
24280;BME280;12395;42.808;23.408;2023-06-19T00:57:40;94959.84;;;14.69;100.00
24280;BME280;12395;42.808;23.408;2023-06-19T01:00:06;94950.00;;;14.70;100.00
24280;BME280;12395;42.808;23.408;2023-06-19T01:02:33;94961.81;;;14.74;100.00
24280;BME280;12395;42.808;23.408;2023-06-19T01:04:59;94946.19;;;14.66;100.00
24280;BME280;12395;42.808;23.408;2023-06-19T01:08:10;94953.59;;;14.76;100.00
24280;BME280;12395;42.808;23.408;2023-06-19T01:10:47;94955.00;;;14.66;100.00
24280;BME280;12395;42.808;23.408;2023-06-19T01:15:52;94959.28;;;14.56;100.00
24280;BME280;12395;42.808;23.408;2023-06-19T01:18:18;94967.16;;;14.62;100.00
24280;BME280;12395;42.808;23.408;2023-06-19T01:20:44;94955.91;;;14.49;100.00
24280;BME280;12395;42.808;23.408;2023-06-19T01:23:11;94964.72;;;14.61;100.00
24280;BME280;12395;42.808;23.408;2023-06-19T01:25:37;94963.31;;;14.58;100.00
24280;BME280;12395;42.808;23.408;2023-06-19T01:28:09;94959.81;;;14.46;100.00
24280;BME280;12395;42.808;23.408;2023-06-19T01:30:36;94958.44;;;14.44;100.00
24280;BME280;12395;42.808;23.408;2023-06-19T01:33:21;94968.88;;;14.45;100.00
24280;BME280;12395;42.808;23.408;2023-06-19T01:35:49;94963.06;;;14.37;100.00
24280;BME280;12395;42.808;23.408;2023-06-19T01:38:16;94965.75;;;14.37;100.00
24280;BME280;12395;42.808;23.408;2023-06-19T01:40:42;94966.63;;;14.31;100.00
24280;BME280;12395;42.808;23.408;2023-06-19T01:43:09;94971.16;;;14.30;100.00
24280;BME280;12395;42.808;23.408;2023-06-19T01:45:35;94972.50;;;14.21;100.00
24280;BME280;12395;42.808;23.408;2023-06-19T01:48:01;94970.34;;;14.30;100.00
24280;BME280;12395;42.808;23.408;2023-06-19T01:50:26;94974.47;;;14.26;100.00
24280;BME280;12395;42.808;23.408;2023-06-19T01:52:52;94974.81;;;14.18;100.00
24280;BME280;12395;42.808;23.408;2023-06-19T01:55:18;94958.44;;;14.03;100.00
24280;BME280;12395;42.808;23.408;2023-06-19T01:57:43;94973.94;;;14.06;100.00
24280;BME280;12395;42.808;23.408;2023-06-19T02:00:11;94977.09;;;14.03;100.00
24280;BME280;12395;42.808;23.408;2023-06-19T02:02:37;94969.28;;;14.01;100.00
24280;BME280;12395;42.808;23.408;2023-06-19T02:05:03;94973.59;;;14.02;100.00
24280;BME280;12395;42.808;23.408;2023-06-19T02:07:29;94971.16;;;14.01;100.00
24280;BME280;12395;42.808;23.408;2023-06-19T02:09:55;94980.19;;;14.00;100.00
24280;BME280;12395;42.808;23.408;2023-06-19T02:12:20;94979.00;;;13.96;100.00
24280;BME280;12395;42.808;23.408;2023-06-19T02:14:46;94962.03;;;13.78;100.00
24280;BME280;12395;42.808;23.408;2023-06-19T02:17:11;94983.50;;;13.83;100.00
24280;BME280;12395;42.808;23.408;2023-06-19T02:19:36;94972.22;;;13.81;100.00
24280;BME280;12395;42.808;23.408;2023-06-19T02:22:02;94984.88;;;13.86;100.00
24280;BME280;12395;42.808;23.408;2023-06-19T02:24:27;94976.97;;;13.79;100.00
24280;BME280;12395;42.808;23.408;2023-06-19T02:26:53;94982.44;;;13.84;100.00
24280;BME280;12395;42.808;23.408;2023-06-19T02:29:18;94978.34;;;13.70;100.00
24280;BME280;12395;42.808;23.408;2023-06-19T02:31:44;94990.91;;;13.63;100.00
24280;BME280;12395;42.808;23.408;2023-06-19T02:34:09;94993.34;;;13.65;100.00
24280;BME280;12395;42.808;23.408;2023-06-19T02:36:35;95002.50;;;13.69;100.00
24280;BME280;12395;42.808;23.408;2023-06-19T02:39:03;94993.56;;;13.63;100.00
24280;BME280;12395;42.808;23.408;2023-06-19T02:41:28;95005.63;;;13.66;100.00
24280;BME280;12395;42.808;23.408;2023-06-19T02:43:54;95002.44;;;13.57;100.00
24280;BME280;12395;42.808;23.408;2023-06-19T02:46:19;94993.72;;;13.50;100.00
24280;BME280;12395;42.808;23.408;2023-06-19T02:48:44;95011.03;;;13.59;100.00
24280;BME280;12395;42.808;23.408;2023-06-19T02:51:10;95002.22;;;13.59;100.00
24280;BME280;12395;42.808;23.408;2023-06-19T02:53:35;95003.28;;;13.58;100.00
24280;BME280;12395;42.808;23.408;2023-06-19T02:56:01;94997.44;;;13.49;100.00
24280;BME280;12395;42.808;23.408;2023-06-19T02:58:26;95011.84;;;13.60;100.00
24280;BME280;12395;42.808;23.408;2023-06-19T03:00:52;95013.09;;;13.57;100.00
24280;BME280;12395;42.808;23.408;2023-06-19T03:03:18;95018.56;;;13.62;100.00
24280;BME280;12395;42.808;23.408;2023-06-19T03:05:43;95001.28;;;13.53;100.00
24280;BME280;12395;42.808;23.408;2023-06-19T03:08:09;95013.69;;;13.59;100.00
24280;BME280;12395;42.808;23.408;2023-06-19T03:10:34;95003.78;;;13.48;100.00
24280;BME280;12395;42.808;23.408;2023-06-19T03:12:59;94994.78;;;13.49;100.00
24280;BME280;12395;42.808;23.408;2023-06-19T03:15:25;94998.16;;;13.56;100.00
24280;BME280;12395;42.808;23.408;2023-06-19T03:17:52;94992.25;;;13.54;100.00
24280;BME280;12395;42.808;23.408;2023-06-19T03:20:18;95008.06;;;13.67;100.00
24280;BME280;12395;42.808;23.408;2023-06-19T03:22:44;94991.72;;;13.64;100.00
24280;BME280;12395;42.808;23.408;2023-06-19T03:25:09;95009.47;;;13.70;100.00
24280;BME280;12395;42.808;23.408;2023-06-19T03:27:35;94946.19;;;13.36;100.00
24280;BME280;12395;42.808;23.408;2023-06-19T03:30:02;95004.97;;;13.70;100.00
24280;BME280;12395;42.808;23.408;2023-06-19T03:32:32;94989.56;;;13.72;100.00
24280;BME280;12395;42.808;23.408;2023-06-19T03:34:58;94998.06;;;13.81;100.00
24280;BME280;12395;42.808;23.408;2023-06-19T03:37:23;94989.09;;;13.75;100.00
24280;BME280;12395;42.808;23.408;2023-06-19T03:39:48;95001.06;;;13.84;100.00
24280;BME280;12395;42.808;23.408;2023-06-19T03:42:14;94977.66;;;13.75;100.00
24280;BME280;12395;42.808;23.408;2023-06-19T03:44:39;94994.84;;;13.90;100.00
24280;BME280;12395;42.808;23.408;2023-06-19T03:47:06;94997.34;;;14.04;100.00
24280;BME280;12395;42.808;23.408;2023-06-19T03:49:31;95012.91;;;14.18;100.00
24280;BME280;12395;42.808;23.408;2023-06-19T03:51:57;94994.25;;;14.18;100.00
24280;BME280;12395;42.808;23.408;2023-06-19T03:54:22;94983.84;;;14.17;100.00
24280;BME280;12395;42.808;23.408;2023-06-19T03:56:47;95006.97;;;14.34;100.00
24280;BME280;12395;42.808;23.408;2023-06-19T03:59:13;94997.00;;;14.41;100.00
24280;BME280;12395;42.808;23.408;2023-06-19T04:01:38;94980.00;;;14.42;100.00
24280;BME280;12395;42.808;23.408;2023-06-19T04:04:04;95003.69;;;14.62;100.00
24280;BME280;12395;42.808;23.408;2023-06-19T04:06:29;95002.66;;;14.75;100.00
24280;BME280;12395;42.808;23.408;2023-06-19T04:08:55;94996.84;;;14.89;100.00
24280;BME280;12395;42.808;23.408;2023-06-19T04:11:20;95018.91;;;15.54;100.00
24280;BME280;12395;42.808;23.408;2023-06-19T04:13:46;95009.81;;;16.79;100.00
24280;BME280;12395;42.808;23.408;2023-06-19T04:16:12;95026.44;;;18.34;100.00
24280;BME280;12395;42.808;23.408;2023-06-19T04:18:37;95039.75;;;20.35;95.80
24280;BME280;12395;42.808;23.408;2023-06-19T04:21:03;95041.50;;;22.56;83.14
24280;BME280;12395;42.808;23.408;2023-06-19T04:23:28;95041.16;;;24.68;71.44
24280;BME280;12395;42.808;23.408;2023-06-19T04:25:54;95048.53;;;26.47;62.16
24280;BME280;12395;42.808;23.408;2023-06-19T04:28:19;95032.66;;;27.92;56.09
24280;BME280;12395;42.808;23.408;2023-06-19T04:30:44;95044.00;;;29.21;51.88
24280;BME280;12395;42.808;23.408;2023-06-19T04:33:10;95042.06;;;30.27;47.49
24280;BME280;12395;42.808;23.408;2023-06-19T04:35:35;95049.00;;;31.00;44.70
24280;BME280;12395;42.808;23.408;2023-06-19T04:38:05;95048.84;;;31.38;43.27
24280;BME280;12395;42.808;23.408;2023-06-19T04:40:31;95054.28;;;30.30;44.89
24280;BME280;12395;42.808;23.408;2023-06-19T04:42:57;95045.09;;;27.85;49.67
24280;BME280;12395;42.808;23.408;2023-06-19T04:45:23;95026.91;;;25.69;57.00
24280;BME280;12395;42.808;23.408;2023-06-19T04:47:48;95007.13;;;24.20;62.99
24280;BME280;12395;42.808;23.408;2023-06-19T04:50:14;95012.59;;;23.34;67.50
24280;BME280;12395;42.808;23.408;2023-06-19T04:52:40;95025.81;;;22.53;71.03
24280;BME280;12395;42.808;23.408;2023-06-19T04:55:07;95006.44;;;21.72;73.25
24280;BME280;12395;42.808;23.408;2023-06-19T04:57:37;95018.91;;;21.22;77.51
24280;BME280;12395;42.808;23.408;2023-06-19T05:00:06;95005.41;;;20.92;80.85
24280;BME280;12395;42.808;23.408;2023-06-19T05:02:33;95014.28;;;20.77;82.13
24280;BME280;12395;42.808;23.408;2023-06-19T05:04:59;95020.97;;;20.60;80.57
24280;BME280;12395;42.808;23.408;2023-06-19T05:07:32;94999.66;;;20.33;81.37
24280;BME280;12395;42.808;23.408;2023-06-19T05:09:58;95005.81;;;20.24;84.60
24280;BME280;12395;42.808;23.408;2023-06-19T05:12:23;95015.47;;;20.20;87.22
24280;BME280;12395;42.808;23.408;2023-06-19T05:14:49;95020.50;;;20.01;86.08
24280;BME280;12395;42.808;23.408;2023-06-19T05:17:14;95009.09;;;19.79;87.40
24280;BME280;12395;42.808;23.408;2023-06-19T05:19:40;95022.22;;;19.70;88.48
24280;BME280;12395;42.808;23.408;2023-06-19T05:22:05;95004.88;;;19.41;87.92
24280;BME280;12395;42.808;23.408;2023-06-19T05:24:31;95015.88;;;19.45;87.68
24280;BME280;12395;42.808;23.408;2023-06-19T05:26:58;95007.69;;;19.30;90.23
24280;BME280;12395;42.808;23.408;2023-06-19T05:29:24;95022.22;;;19.34;90.77
24280;BME280;12395;42.808;23.408;2023-06-19T05:31:50;95025.13;;;19.22;89.61
24280;BME280;12395;42.808;23.408;2023-06-19T05:34:16;95007.47;;;18.99;90.91
24280;BME280;12395;42.808;23.408;2023-06-19T05:36:41;95019.31;;;19.03;92.99
24280;BME280;12395;42.808;23.408;2023-06-19T05:39:06;95032.88;;;18.87;94.83
24280;BME280;12395;42.808;23.408;2023-06-19T05:41:32;95040.91;;;18.82;97.99
24280;BME280;12395;42.808;23.408;2023-06-19T05:43:58;95033.91;;;18.81;99.37
24280;BME280;12395;42.808;23.408;2023-06-19T05:46:23;95039.00;;;18.82;100.00
24280;BME280;12395;42.808;23.408;2023-06-19T05:48:48;95029.84;;;18.78;100.00
24280;BME280;12395;42.808;23.408;2023-06-19T05:51:14;95042.00;;;18.86;100.00
24280;BME280;12395;42.808;23.408;2023-06-19T05:53:39;95044.09;;;18.79;100.00
24280;BME280;12395;42.808;23.408;2023-06-19T05:56:05;95052.75;;;18.86;100.00
24280;BME280;12395;42.808;23.408;2023-06-19T05:58:32;95044.38;;;18.82;100.00
24280;BME280;12395;42.808;23.408;2023-06-19T06:00:57;95044.44;;;18.87;100.00
24280;BME280;12395;42.808;23.408;2023-06-19T06:03:24;95052.88;;;19.01;100.00
24280;BME280;12395;42.808;23.408;2023-06-19T06:05:53;95047.03;;;19.09;100.00
24280;BME280;12395;42.808;23.408;2023-06-19T06:08:18;95043.28;;;19.10;100.00
24280;BME280;12395;42.808;23.408;2023-06-19T06:10:44;95034.16;;;19.11;100.00
24280;BME280;12395;42.808;23.408;2023-06-19T06:13:09;95034.75;;;19.18;100.00
24280;BME280;12395;42.808;23.408;2023-06-19T06:15:36;95049.63;;;19.31;100.00
24280;BME280;12395;42.808;23.408;2023-06-19T06:18:01;95034.88;;;19.33;100.00
24280;BME280;12395;42.808;23.408;2023-06-19T06:20:28;95035.19;;;19.37;99.57
24280;BME280;12395;42.808;23.408;2023-06-19T06:22:53;95052.25;;;19.57;100.00
24280;BME280;12395;42.808;23.408;2023-06-19T06:25:19;95051.75;;;19.65;100.00
24280;BME280;12395;42.808;23.408;2023-06-19T06:27:45;95049.09;;;19.70;100.00
24280;BME280;12395;42.808;23.408;2023-06-19T06:30:11;95052.38;;;19.77;99.40
24280;BME280;12395;42.808;23.408;2023-06-19T06:32:37;95035.63;;;19.65;99.11
24280;BME280;12395;42.808;23.408;2023-06-19T06:35:03;95068.53;;;19.82;99.60
24280;BME280;12395;42.808;23.408;2023-06-19T06:37:29;95050.75;;;19.71;100.00
24280;BME280;12395;42.808;23.408;2023-06-19T06:39:54;95062.38;;;19.87;100.00
24280;BME280;12395;42.808;23.408;2023-06-19T06:42:20;95060.22;;;19.84;98.72
24280;BME280;12395;42.808;23.408;2023-06-19T06:44:45;95079.28;;;19.82;97.67
24280;BME280;12395;42.808;23.408;2023-06-19T06:47:11;95063.09;;;19.72;98.28
24280;BME280;12395;42.808;23.408;2023-06-19T06:49:36;95073.91;;;19.82;95.59
24280;BME280;12395;42.808;23.408;2023-06-19T06:52:03;95063.69;;;19.79;94.67
24280;BME280;12395;42.808;23.408;2023-06-19T06:54:29;95071.28;;;19.92;93.56
24280;BME280;12395;42.808;23.408;2023-06-19T06:56:54;95074.47;;;19.84;93.07
24280;BME280;12395;42.808;23.408;2023-06-19T06:59:26;95070.75;;;19.90;92.35
24280;BME280;12395;42.808;23.408;2023-06-19T07:01:55;95077.22;;;19.99;94.17
24280;BME280;12395;42.808;23.408;2023-06-19T07:04:21;95070.81;;;20.06;92.14
24280;BME280;12395;42.808;23.408;2023-06-19T07:06:47;95063.25;;;20.02;90.75
24280;BME280;12395;42.808;23.408;2023-06-19T07:09:13;95062.75;;;20.11;91.97
24280;BME280;12395;42.808;23.408;2023-06-19T07:11:40;95070.38;;;20.24;91.03
24280;BME280;12395;42.808;23.408;2023-06-19T07:14:05;95062.59;;;20.22;89.90
24280;BME280;12395;42.808;23.408;2023-06-19T07:16:30;95065.59;;;20.36;88.67
24280;BME280;12395;42.808;23.408;2023-06-19T07:18:56;95065.59;;;20.41;91.40
24280;BME280;12395;42.808;23.408;2023-06-19T07:21:21;95053.25;;;20.45;90.85
24280;BME280;12395;42.808;23.408;2023-06-19T07:23:47;95067.53;;;20.50;86.64
24280;BME280;12395;42.808;23.408;2023-06-19T07:26:13;95075.91;;;20.64;88.61
24280;BME280;12395;42.808;23.408;2023-06-19T07:28:40;95058.69;;;20.65;90.32
24280;BME280;12395;42.808;23.408;2023-06-19T07:31:05;95064.63;;;20.72;86.52
24280;BME280;12395;42.808;23.408;2023-06-19T07:33:30;95073.53;;;20.83;83.93
24280;BME280;12395;42.808;23.408;2023-06-19T07:35:56;95058.16;;;20.83;84.01
24280;BME280;12395;42.808;23.408;2023-06-19T07:38:22;95075.69;;;20.91;79.83
24280;BME280;12395;42.808;23.408;2023-06-19T07:40:47;95070.91;;;21.08;82.81
24280;BME280;12395;42.808;23.408;2023-06-19T07:43:13;95040.13;;;20.94;83.81
24280;BME280;12395;42.808;23.408;2023-06-19T07:45:38;95063.63;;;21.18;81.98
24280;BME280;12395;42.808;23.408;2023-06-19T07:48:04;95060.38;;;21.11;80.99
24280;BME280;12395;42.808;23.408;2023-06-19T07:50:29;95065.78;;;21.21;80.51
24280;BME280;12395;42.808;23.408;2023-06-19T07:52:54;95061.47;;;21.20;80.87
24280;BME280;12395;42.808;23.408;2023-06-19T07:55:20;95070.09;;;21.37;76.44
24280;BME280;12395;42.808;23.408;2023-06-19T07:57:45;95067.41;;;21.52;78.77
24280;BME280;12395;42.808;23.408;2023-06-19T08:00:11;95073.59;;;21.63;77.91
24280;BME280;12395;42.808;23.408;2023-06-19T08:02:38;95067.41;;;21.58;71.57
24280;BME280;12395;42.808;23.408;2023-06-19T08:05:04;95063.63;;;21.53;71.33
24280;BME280;12395;42.808;23.408;2023-06-19T08:07:30;95076.53;;;21.72;70.98
24280;BME280;12395;42.808;23.408;2023-06-19T08:09:55;95062.81;;;21.68;71.47
24280;BME280;12395;42.808;23.408;2023-06-19T08:12:21;95080.84;;;21.78;71.15
24280;BME280;12395;42.808;23.408;2023-06-19T08:14:46;95068.47;;;21.67;69.50
24280;BME280;12395;42.808;23.408;2023-06-19T08:17:11;95069.00;;;21.79;71.53
24280;BME280;12395;42.808;23.408;2023-06-19T08:19:37;95060.09;;;21.78;69.92
24280;BME280;12395;42.808;23.408;2023-06-19T08:22:05;95069.78;;;22.04;72.51
24280;BME280;12395;42.808;23.408;2023-06-19T08:24:30;95064.63;;;22.08;70.48
24280;BME280;12395;42.808;23.408;2023-06-19T08:26:56;95056.00;;;22.06;67.72
24280;BME280;12395;42.808;23.408;2023-06-19T08:29:21;95075.91;;;22.25;69.07
24280;BME280;12395;42.808;23.408;2023-06-19T08:31:47;95078.31;;;22.26;66.89
24280;BME280;12395;42.808;23.408;2023-06-19T08:34:13;95085.06;;;22.34;70.17
24280;BME280;12395;42.808;23.408;2023-06-19T08:36:38;95060.75;;;22.29;69.85
24280;BME280;12395;42.808;23.408;2023-06-19T08:39:04;95058.81;;;22.45;66.74
24280;BME280;12395;42.808;23.408;2023-06-19T08:41:30;95084.38;;;22.67;69.32
24280;BME280;12395;42.808;23.408;2023-06-19T08:43:55;95071.72;;;22.63;66.58
24280;BME280;12395;42.808;23.408;2023-06-19T08:46:20;95077.94;;;22.63;65.39
24280;BME280;12395;42.808;23.408;2023-06-19T08:48:46;95082.19;;;22.74;68.50
24280;BME280;12395;42.808;23.408;2023-06-19T08:51:12;95084.38;;;22.72;65.03
24280;BME280;12395;42.808;23.408;2023-06-19T08:56:34;95074.31;;;22.83;67.07
24280;BME280;12395;42.808;23.408;2023-06-19T08:59:17;95070.56;;;22.74;65.73
24280;BME280;12395;42.808;23.408;2023-06-19T09:01:53;95066.75;;;22.80;61.48
24280;BME280;12395;42.808;23.408;2023-06-19T09:04:20;95078.28;;;22.95;60.14
24280;BME280;12395;42.808;23.408;2023-06-19T09:09:15;95076.25;;;23.16;61.52
24280;BME280;12395;42.808;23.408;2023-06-19T09:11:41;95072.69;;;23.21;62.05
24280;BME280;12395;42.808;23.408;2023-06-19T09:14:09;95066.50;;;23.20;61.27
24280;BME280;12395;42.808;23.408;2023-06-19T09:16:40;95057.59;;;23.20;60.22
24280;BME280;12395;42.808;23.408;2023-06-19T09:19:06;95067.72;;;23.38;63.23
24280;BME280;12395;42.808;23.408;2023-06-19T09:21:31;95060.06;;;23.50;61.95
24280;BME280;12395;42.808;23.408;2023-06-19T09:24:07;95063.53;;;23.55;58.91
24280;BME280;12395;42.808;23.408;2023-06-19T09:26:33;95054.72;;;23.73;58.84
24280;BME280;12395;42.808;23.408;2023-06-19T09:29:10;95061.69;;;24.08;59.57
24280;BME280;12395;42.808;23.408;2023-06-19T09:31:35;95059.91;;;24.22;56.05
24280;BME280;12395;42.808;23.408;2023-06-19T09:34:03;95068.88;;;24.41;57.51
24280;BME280;12395;42.808;23.408;2023-06-19T09:36:31;95046.09;;;24.42;56.79
24280;BME280;12395;42.808;23.408;2023-06-19T09:38:57;95051.69;;;24.75;55.61
24280;BME280;12395;42.808;23.408;2023-06-19T09:41:23;95057.94;;;25.12;57.86
24280;BME280;12395;42.808;23.408;2023-06-19T09:43:54;95056.56;;;25.47;52.32
24280;BME280;12395;42.808;23.408;2023-06-19T09:46:28;95063.63;;;25.48;53.39
24280;BME280;12395;42.808;23.408;2023-06-19T09:48:55;95065.84;;;25.46;50.28
24280;BME280;12395;42.808;23.408;2023-06-19T09:51:29;95068.47;;;25.51;52.13
24280;BME280;12395;42.808;23.408;2023-06-19T09:53:56;95042.34;;;25.55;54.58
24280;BME280;12395;42.808;23.408;2023-06-19T09:56:24;95072.34;;;25.64;51.69
24280;BME280;12395;42.808;23.408;2023-06-19T09:58:52;95066.03;;;25.50;51.71
24280;BME280;12395;42.808;23.408;2023-06-19T10:01:19;95049.44;;;25.19;53.88
24280;BME280;12395;42.808;23.408;2023-06-19T10:03:44;95028.47;;;25.06;52.77
24280;BME280;12395;42.808;23.408;2023-06-19T10:06:14;95045.59;;;25.20;53.85
24280;BME280;12395;42.808;23.408;2023-06-19T10:08:42;95042.22;;;25.28;56.84
24280;BME280;12395;42.808;23.408;2023-06-19T10:11:09;95039.22;;;25.30;53.86
24280;BME280;12395;42.808;23.408;2023-06-19T10:13:36;95038.84;;;25.36;54.54
24280;BME280;12395;42.808;23.408;2023-06-19T10:16:04;95055.31;;;25.58;51.91
24280;BME280;12395;42.808;23.408;2023-06-19T10:18:31;95031.06;;;25.48;56.65
24280;BME280;12395;42.808;23.408;2023-06-19T10:20:56;95050.00;;;25.53;54.12
24280;BME280;12395;42.808;23.408;2023-06-19T10:23:24;95050.13;;;25.43;54.22
24280;BME280;12395;42.808;23.408;2023-06-19T10:28:29;95035.69;;;25.48;52.40
24280;BME280;12395;42.808;23.408;2023-06-19T10:31:06;95034.50;;;25.54;53.10
24280;BME280;12395;42.808;23.408;2023-06-19T10:33:33;95010.88;;;25.54;55.80
24280;BME280;12395;42.808;23.408;2023-06-19T10:36:01;95028.78;;;25.55;54.42
24280;BME280;12395;42.808;23.408;2023-06-19T10:38:27;95010.16;;;25.30;56.15
24280;BME280;12395;42.808;23.408;2023-06-19T10:40:53;95026.75;;;25.28;51.39
24280;BME280;12395;42.808;23.408;2023-06-19T10:43:23;95019.09;;;25.17;51.26
24280;BME280;12395;42.808;23.408;2023-06-19T10:45:53;95016.28;;;25.22;55.03
24280;BME280;12395;42.808;23.408;2023-06-19T10:48:20;95003.03;;;25.20;52.21
24280;BME280;12395;42.808;23.408;2023-06-19T10:50:45;95020.88;;;25.21;51.23
24280;BME280;12395;42.808;23.408;2023-06-19T10:53:26;95020.47;;;25.14;49.32
24280;BME280;12395;42.808;23.408;2023-06-19T10:55:56;95007.66;;;25.01;52.59
24280;BME280;12395;42.808;23.408;2023-06-19T10:58:23;95014.44;;;25.17;52.93
24280;BME280;12395;42.808;23.408;2023-06-19T11:00:48;95011.03;;;25.12;49.29
24280;BME280;12395;42.808;23.408;2023-06-19T11:03:13;95014.59;;;25.45;49.23
24280;BME280;12395;42.808;23.408;2023-06-19T11:05:43;94994.91;;;25.53;45.56
24280;BME280;12395;42.808;23.408;2023-06-19T11:08:09;95024.53;;;25.95;47.54
24280;BME280;12395;42.808;23.408;2023-06-19T11:10:34;95001.41;;;25.97;44.30
24280;BME280;12395;42.808;23.408;2023-06-19T11:13:00;95017.19;;;25.95;47.20
24280;BME280;12395;42.808;23.408;2023-06-19T11:17:55;94997.50;;;25.58;45.02
24280;BME280;12395;42.808;23.408;2023-06-19T11:20:21;94999.53;;;25.52;48.67
24280;BME280;12395;42.808;23.408;2023-06-19T11:22:46;95009.38;;;25.48;48.18
24280;BME280;12395;42.808;23.408;2023-06-19T11:25:12;95007.69;;;25.34;45.81
24280;BME280;12395;42.808;23.408;2023-06-19T11:27:38;95001.63;;;25.23;46.79
24280;BME280;12395;42.808;23.408;2023-06-19T11:30:04;95018.94;;;24.90;48.50
24280;BME280;12395;42.808;23.408;2023-06-19T11:32:35;95005.16;;;24.68;49.38
24280;BME280;12395;42.808;23.408;2023-06-19T11:35:08;94997.03;;;24.86;50.04
24280;BME280;12395;42.808;23.408;2023-06-19T11:37:33;94997.75;;;25.10;49.84
24280;BME280;12395;42.808;23.408;2023-06-19T11:40:00;94991.59;;;25.05;47.15
24280;BME280;12395;42.808;23.408;2023-06-19T11:42:26;94973.03;;;24.80;47.35
24280;BME280;12395;42.808;23.408;2023-06-19T11:44:55;95006.63;;;24.79;45.77
24280;BME280;12395;42.808;23.408;2023-06-19T11:47:21;95005.53;;;24.61;46.42
24280;BME280;12395;42.808;23.408;2023-06-19T11:49:50;94972.00;;;24.57;48.33
24280;BME280;12395;42.808;23.408;2023-06-19T11:52:16;94982.69;;;24.86;51.64
24280;BME280;12395;42.808;23.408;2023-06-19T11:54:42;94989.50;;;25.02;48.68
24280;BME280;12395;42.808;23.408;2023-06-19T11:57:09;94974.81;;;25.03;47.24
24280;BME280;12395;42.808;23.408;2023-06-19T11:59:40;94982.06;;;25.07;47.60
24280;BME280;12395;42.808;23.408;2023-06-19T12:02:06;94995.38;;;25.22;46.88
24280;BME280;12395;42.808;23.408;2023-06-19T12:04:32;94991.88;;;25.22;47.95
24280;BME280;12395;42.808;23.408;2023-06-19T12:06:58;94983.59;;;25.13;49.37
24280;BME280;12395;42.808;23.408;2023-06-19T12:09:24;94989.53;;;25.15;43.86
24280;BME280;12395;42.808;23.408;2023-06-19T12:11:49;94959.75;;;24.97;45.45
24280;BME280;12395;42.808;23.408;2023-06-19T12:14:15;94952.28;;;24.89;45.68
24280;BME280;12395;42.808;23.408;2023-06-19T12:16:40;94975.91;;;25.20;46.24
24280;BME280;12395;42.808;23.408;2023-06-19T12:19:06;94979.13;;;25.22;44.66
24280;BME280;12395;42.808;23.408;2023-06-19T12:21:31;94975.53;;;25.41;47.56
24280;BME280;12395;42.808;23.408;2023-06-19T12:23:57;94981.03;;;25.54;45.48
24280;BME280;12395;42.808;23.408;2023-06-19T12:26:22;94978.81;;;25.56;48.04
24280;BME280;12395;42.808;23.408;2023-06-19T12:28:50;94969.97;;;25.64;44.89
24280;BME280;12395;42.808;23.408;2023-06-19T12:31:17;94974.91;;;25.62;45.24
24280;BME280;12395;42.808;23.408;2023-06-19T12:33:42;94990.03;;;25.68;44.88
24280;BME280;12395;42.808;23.408;2023-06-19T12:36:13;94971.41;;;25.62;41.30
24280;BME280;12395;42.808;23.408;2023-06-19T12:38:40;94990.81;;;25.69;44.39
24280;BME280;12395;42.808;23.408;2023-06-19T12:41:05;94979.56;;;25.75;43.06
24280;BME280;12395;42.808;23.408;2023-06-19T12:43:37;94974.81;;;25.67;46.06
24280;BME280;12395;42.808;23.408;2023-06-19T12:46:03;94960.53;;;25.48;45.00
24280;BME280;12395;42.808;23.408;2023-06-19T12:48:29;94950.09;;;25.23;42.82
24280;BME280;12395;42.808;23.408;2023-06-19T12:50:54;94953.81;;;25.27;46.57
24280;BME280;12395;42.808;23.408;2023-06-19T12:53:20;94971.88;;;25.50;45.39
24280;BME280;12395;42.808;23.408;2023-06-19T12:55:48;94951.28;;;25.49;41.62